Abita Springs, Louisiana
Current Conditions -  °F | °C
As of 9:53 AM on Tuesday 27 Jan 2015 (Local Time) from KASD Reporting Station
Clear Clear  
Wind Chill: 62°   Ceiling: Unl
Heat Index: 62°   Visibility: 10mi
Dew Point: 41°   Wind: 6mph
Humidity: 46%   Direction: 340°NNW
Pressure: 30.14"   Gusts: NA
Location:  30.48°N, 90.04°W
Report Text: KASD 271553Z AUTO 34005KT 10SM CLR 17/05 A3014 RMK AO2 SLP204 T01670050
Loading
Personal Weather Stations






























Interactive Weather Map New forecast layout! Learn more

10-Day Weather Forecast

Advertisements
Track Severe Weather on mobile